createdAt,value
2023-01-28T00:04:14.637Z,-1.57
2023-01-28T00:09:21.892Z,-1.55
2023-01-28T00:20:08.196Z,-1.50
2023-01-28T00:25:18.452Z,-1.57
2023-01-28T00:30:25.991Z,-1.61
2023-01-28T00:35:33.372Z,-1.64
2023-01-28T00:40:40.773Z,-1.65
2023-01-28T00:45:50.305Z,-1.67
2023-01-28T00:50:58.447Z,-1.68
2023-01-28T00:56:07.236Z,-1.66
2023-01-28T01:01:17.589Z,-1.63
2023-01-28T01:06:26.329Z,-1.61
2023-01-28T01:11:37.012Z,-1.60
2023-01-28T01:16:44.482Z,-1.62
2023-01-28T01:21:51.736Z,-1.64
2023-01-28T01:26:58.962Z,-1.62
2023-01-28T01:32:05.005Z,-1.59
2023-01-28T01:37:13.292Z,-1.58
2023-01-28T01:42:20.876Z,-1.59
2023-01-28T01:47:34.314Z,-1.59
2023-01-28T01:52:42.969Z,-1.59
2023-01-28T01:57:53.501Z,-1.63
2023-01-28T02:03:01.176Z,-1.67
2023-01-28T02:08:25.753Z,-1.72
2023-01-28T02:13:38.377Z,-1.76
2023-01-28T02:18:46.212Z,-1.78
2023-01-28T02:24:08.911Z,-1.78
2023-01-28T02:29:22.181Z,-1.81
2023-01-28T02:34:37.630Z,-1.82
2023-01-28T02:39:49.942Z,-1.84
2023-01-28T02:44:57.342Z,-1.86
2023-01-28T02:50:09.179Z,-1.86
2023-01-28T02:55:26.469Z,-1.84
2023-01-28T03:00:41.724Z,-1.82
2023-01-28T03:06:07.142Z,-1.81
2023-01-28T03:11:33.232Z,-1.84
2023-01-28T03:16:59.371Z,-1.86
2023-01-28T03:22:25.322Z,-1.85
2023-01-28T03:37:54.900Z,-1.69
2023-01-28T03:43:03.121Z,-1.66
2023-01-28T03:48:10.739Z,-1.63
2023-01-28T03:53:20.317Z,-1.61
2023-01-28T03:58:47.045Z,-1.62
2023-01-28T04:03:55.178Z,-1.67
2023-01-28T04:09:02.676Z,-1.68
2023-01-28T04:14:10.595Z,-1.64
2023-01-28T04:19:18.538Z,-1.63
2023-01-28T04:24:26.493Z,-1.65
2023-01-28T04:29:34.349Z,-1.69
2023-01-28T04:34:41.772Z,-1.73
2023-01-28T04:39:49.267Z,-1.79
2023-01-28T04:44:58.392Z,-1.75
2023-01-28T04:50:06.283Z,-1.71
2023-01-28T04:55:14.592Z,-1.70
2023-01-28T05:00:23.314Z,-1.69
2023-01-28T05:05:30.515Z,-1.68
2023-01-28T05:10:37.916Z,-1.73
2023-01-28T05:15:45.760Z,-1.76
2023-01-28T05:20:53.464Z,-1.78
2023-01-28T05:26:00.861Z,-1.76
2023-01-28T05:31:11.615Z,-1.78
2023-01-28T05:36:19.500Z,-1.79
2023-01-28T05:41:26.712Z,-1.82
2023-01-28T05:46:32.740Z,-1.81
2023-01-28T05:51:41.019Z,-1.79
2023-01-28T05:56:48.930Z,-1.76
2023-01-28T06:01:56.427Z,-1.75
2023-01-28T06:07:03.648Z,-1.76
2023-01-28T06:12:11.512Z,-1.78
2023-01-28T06:17:19.045Z,-1.77
2023-01-28T06:25:11.605Z,-1.77
2023-01-28T06:30:20.321Z,-1.84
2023-01-28T06:35:28.295Z,-1.85
2023-01-28T06:40:36.193Z,-1.82
2023-01-28T06:45:44.562Z,-1.80
2023-01-28T06:50:52.967Z,-1.76
2023-01-28T06:56:00.874Z,-1.78
2023-01-28T07:01:08.581Z,-1.83
2023-01-28T07:06:16.903Z,-1.87
2023-01-28T07:11:24.733Z,-1.92
2023-01-28T07:16:32.343Z,-1.91
2023-01-28T07:21:39.946Z,-1.86
2023-01-28T07:26:49.070Z,-1.85
2023-01-28T07:31:56.569Z,-1.81
2023-01-28T07:37:04.092Z,-1.79
2023-01-28T07:42:13.840Z,-1.74
2023-01-28T07:47:23.309Z,-1.73
2023-01-28T07:52:32.039Z,-1.71
2023-01-28T07:57:49.212Z,-1.70
2023-01-28T08:03:00.892Z,-1.72
2023-01-28T08:08:09.934Z,-1.74
2023-01-28T08:13:18.987Z,-1.73
2023-01-28T08:18:26.890Z,-1.68
2023-01-28T08:23:35.305Z,-1.66
2023-01-28T08:28:43.035Z,-1.62
2023-01-28T08:33:50.362Z,-1.58
2023-01-28T08:38:57.549Z,-1.60
2023-01-28T08:44:04.104Z,-1.56
2023-01-28T08:49:12.375Z,-1.57
2023-01-28T08:54:20.748Z,-1.57
2023-01-28T08:59:28.370Z,-1.57
2023-01-28T09:04:36.747Z,-1.60
2023-01-28T09:09:44.509Z,-1.55
2023-01-28T09:14:52.529Z,-1.55
2023-01-28T09:20:00.172Z,-1.52
2023-01-28T09:25:09.548Z,-1.49
2023-01-28T09:30:18.592Z,-1.51
2023-01-28T09:35:26.549Z,-1.54
2023-01-28T09:40:42.823Z,-1.52
2023-01-28T09:45:52.515Z,-1.53
2023-01-28T09:51:03.457Z,-1.51
2023-01-28T09:56:21.161Z,-1.47
2023-01-28T10:01:43.003Z,-1.43
2023-01-28T10:07:00.344Z,-1.36
2023-01-28T10:12:23.021Z,-1.24
2023-01-28T10:17:37.187Z,-1.17
2023-01-28T10:22:50.006Z,-1.19
2023-01-28T10:27:58.497Z,-1.17
2023-01-28T10:33:18.663Z,-1.18
2023-01-28T10:38:28.496Z,-1.18
2023-01-28T10:43:40.391Z,-1.28
2023-01-28T10:48:56.162Z,-1.33
2023-01-28T10:54:04.722Z,-1.38
2023-01-28T10:59:27.689Z,-1.44
2023-01-28T11:04:37.664Z,-1.41
2023-01-28T11:09:49.216Z,-1.32
2023-01-28T11:14:58.145Z,-1.36
2023-01-28T11:20:20.707Z,-1.36
2023-01-28T11:25:32.523Z,-1.34
2023-01-28T11:30:42.194Z,-1.34
2023-01-28T11:35:58.812Z,-1.39
2023-01-28T11:41:06.724Z,-1.45
2023-01-28T11:46:54.606Z,-1.49
2023-01-28T11:52:12.467Z,-1.45
2023-01-28T11:57:27.516Z,-1.46
2023-01-28T12:02:51.305Z,-1.46
2023-01-28T12:08:08.492Z,-1.47
2023-01-28T12:13:35.849Z,-1.53
2023-01-28T12:19:05.989Z,-1.55
2023-01-28T12:24:27.595Z,-1.51
2023-01-28T12:29:42.798Z,-1.53
2023-01-28T12:35:09.277Z,-1.54
2023-01-28T12:40:33.753Z,-1.50
2023-01-28T12:45:46.977Z,-1.43
2023-01-28T12:50:58.875Z,-1.39
2023-01-28T12:56:15.941Z,-1.32
2023-01-28T13:01:27.400Z,-1.29
2023-01-28T13:06:40.587Z,-1.30
2023-01-28T13:11:51.459Z,-1.26
2023-01-28T13:17:10.058Z,-1.21
2023-01-28T13:22:32.200Z,-1.16
2023-01-28T13:27:39.903Z,-1.14
2023-01-28T13:32:58.982Z,-1.10
2023-01-28T13:38:17.607Z,-1.09
2023-01-28T13:43:40.002Z,-1.13
2023-01-28T13:48:52.211Z,-1.18
2023-01-28T13:54:05.293Z,-1.20
2023-01-28T13:59:29.649Z,-1.24
2023-01-28T14:05:00.779Z,-1.24
2023-01-28T14:10:18.996Z,-1.16
2023-01-28T14:16:00.057Z,-1.11
2023-01-28T14:21:13.723Z,-1.09
2023-01-28T14:26:33.106Z,-1.10
2023-01-28T14:31:41.715Z,-1.10
2023-01-28T14:36:50.369Z,-1.12
2023-01-28T14:42:00.329Z,-1.14
2023-01-28T14:47:46.593Z,-1.15
2023-01-28T14:53:06.536Z,-1.14
2023-01-28T14:58:19.757Z,-1.14
2023-01-28T15:03:28.377Z,-1.14
2023-01-28T15:08:38.985Z,-1.09
2023-01-28T15:13:50.941Z,-1.08
2023-01-28T15:19:00.790Z,-1.13
2023-01-28T15:24:14.658Z,-1.15
2023-01-28T15:29:34.187Z,-1.17
2023-01-28T15:34:49.279Z,-1.17
2023-01-28T15:40:07.241Z,-1.17
2023-01-28T15:45:20.976Z,-1.20
2023-01-28T15:50:29.238Z,-1.23
2023-01-28T15:55:40.352Z,-1.26
2023-01-28T16:00:48.914Z,-1.28
2023-01-28T16:06:02.623Z,-1.29
2023-01-28T16:11:12.311Z,-1.28
2023-01-28T16:16:30.144Z,-1.28
2023-01-28T16:21:44.655Z,-1.29
2023-01-28T16:27:00.999Z,-1.32
2023-01-28T16:32:29.868Z,-1.34
2023-01-28T16:37:39.431Z,-1.36
2023-01-28T16:42:49.965Z,-1.37
2023-01-28T16:47:57.216Z,-1.38
2023-01-28T16:53:04.845Z,-1.36
2023-01-28T16:58:12.996Z,-1.33
2023-01-28T17:03:21.406Z,-1.34
2023-01-28T17:08:29.125Z,-1.36
2023-01-28T17:13:37.941Z,-1.38
2023-01-28T17:18:47.980Z,-1.39
2023-01-28T17:23:58.171Z,-1.35
2023-01-28T17:29:07.175Z,-1.31
2023-01-28T17:34:14.623Z,-1.29
2023-01-28T17:39:22.031Z,-1.25
2023-01-28T17:44:29.582Z,-1.24
2023-01-28T17:49:36.839Z,-1.24
2023-01-28T17:54:44.254Z,-1.25
2023-01-28T17:59:51.623Z,-1.25
2023-01-28T18:04:59.257Z,-1.28
2023-01-28T18:10:08.212Z,-1.28
2023-01-28T18:15:17.607Z,-1.27
2023-01-28T18:20:25.469Z,-1.30
2023-01-28T18:25:33.227Z,-1.32
2023-01-28T18:30:40.762Z,-1.35
2023-01-28T18:35:49.930Z,-1.36
2023-01-28T18:40:58.868Z,-1.37
2023-01-28T18:46:13.222Z,-1.39
2023-01-28T18:51:29.929Z,-1.38
2023-01-28T18:56:39.665Z,-1.37
2023-01-28T19:01:48.381Z,-1.36
2023-01-28T19:06:58.507Z,-1.34
2023-01-28T19:12:07.290Z,-1.32
2023-01-28T19:17:15.070Z,-1.30
2023-01-28T19:22:22.481Z,-1.30
2023-01-28T19:27:29.790Z,-1.30
2023-01-28T19:32:37.230Z,-1.27
2023-01-28T19:37:46.356Z,-1.24
2023-01-28T19:42:56.353Z,-1.23
2023-01-28T19:48:03.823Z,-1.19
2023-01-28T19:53:11.428Z,-1.19
2023-01-28T19:58:19.928Z,-1.17
2023-01-28T20:03:27.401Z,-1.16
2023-01-28T20:08:35.376Z,-1.14
2023-01-28T20:13:45.495Z,-1.11
2023-01-28T20:18:56.139Z,-1.10
2023-01-28T20:24:06.934Z,-1.11
2023-01-28T20:29:18.013Z,-1.10
2023-01-28T20:34:25.638Z,-1.09
2023-01-28T20:39:33.403Z,-1.06
2023-01-28T20:44:41.049Z,-1.05
2023-01-28T20:49:48.837Z,-1.05
2023-01-28T20:54:56.391Z,-1.06
2023-01-28T21:00:03.952Z,-1.06
2023-01-28T21:05:12.854Z,-1.07
2023-01-28T21:10:21.320Z,-1.09
2023-01-28T21:15:28.633Z,-1.06
2023-01-28T21:20:37.269Z,-0.99
2023-01-28T21:25:46.800Z,-0.93
2023-01-28T21:30:54.048Z,-0.94
2023-01-28T21:36:01.713Z,-0.96
2023-01-28T21:41:10.554Z,-0.97
2023-01-28T21:46:18.913Z,-1.02
2023-01-28T21:51:40.595Z,-1.05
2023-01-28T21:56:49.472Z,-1.05
2023-01-28T22:01:57.013Z,-1.05
2023-01-28T22:07:06.292Z,-1.08
2023-01-28T22:12:17.341Z,-1.10
2023-01-28T22:17:25.729Z,-1.11
2023-01-28T22:22:33.786Z,-1.13
2023-01-28T22:27:43.621Z,-1.16
2023-01-28T22:32:52.744Z,-1.17
2023-01-28T22:38:00.400Z,-1.18
2023-01-28T22:43:08.273Z,-1.19
2023-01-28T22:48:16.123Z,-1.22
2023-01-28T22:53:23.519Z,-1.23
2023-01-28T22:58:31.780Z,-1.27
2023-01-28T23:03:39.887Z,-1.31
2023-01-28T23:08:48.721Z,-1.31
2023-01-28T23:14:15.571Z,-1.28
2023-01-28T23:19:41.795Z,-1.27
2023-01-28T23:24:49.522Z,-1.26
2023-01-28T23:29:59.199Z,-1.27
2023-01-28T23:44:47.937Z,-1.25
2023-01-28T23:49:52.431Z,-1.27
2023-01-28T23:54:57.198Z,-1.32
